sensor_id;sensor_type;location;lat;lon;timestamp;P1;durP1;ratioP1;P2;durP2;ratioP2
58697;SDS011;44475;53.206;-6.106;2023-01-29T00:01:58;19.92;;;8.70;;
58697;SDS011;44475;53.206;-6.106;2023-01-29T00:04:24;20.20;;;8.13;;
58697;SDS011;44475;53.206;-6.106;2023-01-29T00:06:50;22.42;;;8.18;;
58697;SDS011;44475;53.206;-6.106;2023-01-29T00:09:17;20.75;;;7.88;;
58697;SDS011;44475;53.206;-6.106;2023-01-29T00:11:43;18.98;;;7.47;;
58697;SDS011;44475;53.206;-6.106;2023-01-29T00:14:10;14.30;;;7.18;;
58697;SDS011;44475;53.206;-6.106;2023-01-29T00:16:36;17.25;;;8.20;;
58697;SDS011;44475;53.206;-6.106;2023-01-29T00:19:03;21.05;;;7.40;;
58697;SDS011;44475;53.206;-6.106;2023-01-29T00:21:29;15.80;;;6.78;;
58697;SDS011;44475;53.206;-6.106;2023-01-29T00:23:56;17.70;;;7.38;;
58697;SDS011;44475;53.206;-6.106;2023-01-29T00:26:23;13.40;;;7.10;;
58697;SDS011;44475;53.206;-6.106;2023-01-29T00:28:49;17.27;;;7.20;;
58697;SDS011;44475;53.206;-6.106;2023-01-29T00:31:17;13.57;;;6.78;;
58697;SDS011;44475;53.206;-6.106;2023-01-29T00:33:45;19.88;;;6.85;;
58697;SDS011;44475;53.206;-6.106;2023-01-29T00:36:13;12.63;;;6.20;;
58697;SDS011;44475;53.206;-6.106;2023-01-29T00:38:40;16.33;;;6.45;;
58697;SDS011;44475;53.206;-6.106;2023-01-29T00:41:11;14.23;;;6.78;;
58697;SDS011;44475;53.206;-6.106;2023-01-29T00:44:01;15.05;;;6.55;;
58697;SDS011;44475;53.206;-6.106;2023-01-29T00:46:46;14.38;;;6.03;;
58697;SDS011;44475;53.206;-6.106;2023-01-29T00:49:12;13.80;;;6.30;;
58697;SDS011;44475;53.206;-6.106;2023-01-29T00:51:39;17.00;;;5.88;;
58697;SDS011;44475;53.206;-6.106;2023-01-29T00:54:05;14.07;;;6.13;;
58697;SDS011;44475;53.206;-6.106;2023-01-29T00:56:35;15.85;;;6.43;;
58697;SDS011;44475;53.206;-6.106;2023-01-29T00:59:02;14.48;;;6.20;;
58697;SDS011;44475;53.206;-6.106;2023-01-29T01:01:28;12.93;;;5.53;;
58697;SDS011;44475;53.206;-6.106;2023-01-29T01:04:13;10.93;;;5.53;;
58697;SDS011;44475;53.206;-6.106;2023-01-29T01:06:40;13.68;;;5.90;;
58697;SDS011;44475;53.206;-6.106;2023-01-29T01:09:08;14.82;;;5.50;;
58697;SDS011;44475;53.206;-6.106;2023-01-29T01:11:53;12.93;;;5.78;;
58697;SDS011;44475;53.206;-6.106;2023-01-29T01:14:20;12.43;;;5.93;;
58697;SDS011;44475;53.206;-6.106;2023-01-29T01:16:47;11.68;;;5.38;;
58697;SDS011;44475;53.206;-6.106;2023-01-29T01:19:14;11.73;;;5.45;;
58697;SDS011;44475;53.206;-6.106;2023-01-29T01:21:41;11.68;;;5.45;;
58697;SDS011;44475;53.206;-6.106;2023-01-29T01:24:10;13.13;;;5.28;;
58697;SDS011;44475;53.206;-6.106;2023-01-29T01:26:37;9.68;;;5.20;;
58697;SDS011;44475;53.206;-6.106;2023-01-29T01:29:04;9.02;;;4.90;;
58697;SDS011;44475;53.206;-6.106;2023-01-29T01:31:30;10.77;;;5.05;;
58697;SDS011;44475;53.206;-6.106;2023-01-29T01:33:56;8.80;;;4.70;;
58697;SDS011;44475;53.206;-6.106;2023-01-29T01:36:24;9.88;;;4.82;;
58697;SDS011;44475;53.206;-6.106;2023-01-29T01:38:50;10.48;;;4.60;;
58697;SDS011;44475;53.206;-6.106;2023-01-29T01:41:17;12.27;;;4.63;;
58697;SDS011;44475;53.206;-6.106;2023-01-29T01:43:50;9.43;;;4.40;;
58697;SDS011;44475;53.206;-6.106;2023-01-29T01:46:16;10.43;;;5.00;;
58697;SDS011;44475;53.206;-6.106;2023-01-29T01:48:43;9.98;;;4.60;;
58697;SDS011;44475;53.206;-6.106;2023-01-29T01:51:14;11.23;;;4.50;;
58697;SDS011;44475;53.206;-6.106;2023-01-29T01:53:47;9.55;;;4.18;;
58697;SDS011;44475;53.206;-6.106;2023-01-29T01:56:27;10.55;;;4.47;;
58697;SDS011;44475;53.206;-6.106;2023-01-29T01:59:02;7.57;;;4.07;;
58697;SDS011;44475;53.206;-6.106;2023-01-29T02:01:34;8.25;;;4.30;;
58697;SDS011;44475;53.206;-6.106;2023-01-29T02:04:08;7.53;;;3.97;;
58697;SDS011;44475;53.206;-6.106;2023-01-29T02:07:02;8.55;;;4.38;;
58697;SDS011;44475;53.206;-6.106;2023-01-29T02:10:00;8.38;;;3.80;;
58697;SDS011;44475;53.206;-6.106;2023-01-29T02:12:36;8.50;;;3.90;;
58697;SDS011;44475;53.206;-6.106;2023-01-29T02:15:03;7.55;;;4.07;;
58697;SDS011;44475;53.206;-6.106;2023-01-29T02:17:30;6.80;;;4.18;;
58697;SDS011;44475;53.206;-6.106;2023-01-29T02:30:58;9.15;;;3.63;;
58697;SDS011;44475;53.206;-6.106;2023-01-29T02:36:21;7.50;;;3.60;;
58697;SDS011;44475;53.206;-6.106;2023-01-29T02:44:44;5.25;;;3.13;;
58697;SDS011;44475;53.206;-6.106;2023-01-29T02:47:17;6.10;;;3.20;;
58697;SDS011;44475;53.206;-6.106;2023-01-29T02:52:42;5.57;;;2.92;;
58697;SDS011;44475;53.206;-6.106;2023-01-29T02:58:17;5.07;;;2.95;;
58697;SDS011;44475;53.206;-6.106;2023-01-29T03:00:49;6.53;;;2.80;;
58697;SDS011;44475;53.206;-6.106;2023-01-29T03:03:20;5.20;;;3.10;;
58697;SDS011;44475;53.206;-6.106;2023-01-29T03:06:08;5.80;;;3.00;;
58697;SDS011;44475;53.206;-6.106;2023-01-29T03:08:46;6.15;;;3.10;;
58697;SDS011;44475;53.206;-6.106;2023-01-29T03:11:35;5.45;;;2.85;;
58697;SDS011;44475;53.206;-6.106;2023-01-29T03:14:13;4.88;;;2.88;;
58697;SDS011;44475;53.206;-6.106;2023-01-29T03:16:46;6.03;;;2.97;;
58697;SDS011;44475;53.206;-6.106;2023-01-29T03:19:21;4.57;;;2.50;;
58697;SDS011;44475;53.206;-6.106;2023-01-29T03:22:04;4.35;;;2.70;;
58697;SDS011;44475;53.206;-6.106;2023-01-29T03:27:51;5.03;;;2.72;;
58697;SDS011;44475;53.206;-6.106;2023-01-29T03:30:47;3.65;;;2.50;;
58697;SDS011;44475;53.206;-6.106;2023-01-29T03:33:48;5.65;;;3.00;;
58697;SDS011;44475;53.206;-6.106;2023-01-29T03:36:25;3.63;;;2.30;;
58697;SDS011;44475;53.206;-6.106;2023-01-29T03:39:13;4.35;;;2.50;;
58697;SDS011;44475;53.206;-6.106;2023-01-29T03:41:52;4.25;;;2.40;;
58697;SDS011;44475;53.206;-6.106;2023-01-29T04:02:08;4.53;;;2.30;;
58697;SDS011;44475;53.206;-6.106;2023-01-29T04:04:58;3.75;;;2.17;;
58697;SDS011;44475;53.206;-6.106;2023-01-29T04:07:38;4.88;;;2.17;;
58697;SDS011;44475;53.206;-6.106;2023-01-29T04:10:14;3.65;;;2.10;;
58697;SDS011;44475;53.206;-6.106;2023-01-29T04:12:49;3.88;;;2.30;;
58697;SDS011;44475;53.206;-6.106;2023-01-29T04:15:39;3.30;;;2.28;;
58697;SDS011;44475;53.206;-6.106;2023-01-29T04:18:16;3.25;;;2.00;;
58697;SDS011;44475;53.206;-6.106;2023-01-29T04:21:09;3.38;;;2.10;;
58697;SDS011;44475;53.206;-6.106;2023-01-29T04:23:35;3.38;;;2.10;;
58697;SDS011;44475;53.206;-6.106;2023-01-29T04:26:07;3.38;;;2.00;;
58697;SDS011;44475;53.206;-6.106;2023-01-29T04:31:08;3.20;;;1.85;;
58697;SDS011;44475;53.206;-6.106;2023-01-29T04:44:21;3.75;;;2.00;;
58697;SDS011;44475;53.206;-6.106;2023-01-29T04:55:45;2.55;;;1.70;;
58697;SDS011;44475;53.206;-6.106;2023-01-29T04:59:01;4.07;;;1.80;;
58697;SDS011;44475;53.206;-6.106;2023-01-29T05:01:31;2.55;;;1.77;;
58697;SDS011;44475;53.206;-6.106;2023-01-29T05:04:04;3.50;;;1.70;;
58697;SDS011;44475;53.206;-6.106;2023-01-29T05:06:35;2.17;;;1.60;;
58697;SDS011;44475;53.206;-6.106;2023-01-29T05:09:02;2.97;;;1.58;;
58697;SDS011;44475;53.206;-6.106;2023-01-29T05:11:29;2.92;;;1.70;;
58697;SDS011;44475;53.206;-6.106;2023-01-29T05:13:58;3.72;;;1.77;;
58697;SDS011;44475;53.206;-6.106;2023-01-29T05:16:33;2.40;;;1.70;;
58697;SDS011;44475;53.206;-6.106;2023-01-29T05:19:10;2.17;;;1.67;;
58697;SDS011;44475;53.206;-6.106;2023-01-29T05:21:38;3.42;;;1.70;;
58697;SDS011;44475;53.206;-6.106;2023-01-29T05:24:19;2.22;;;1.50;;
58697;SDS011;44475;53.206;-6.106;2023-01-29T05:26:47;3.25;;;1.60;;
58697;SDS011;44475;53.206;-6.106;2023-01-29T05:29:33;2.22;;;1.40;;
58697;SDS011;44475;53.206;-6.106;2023-01-29T05:32:00;2.60;;;1.73;;
58697;SDS011;44475;53.206;-6.106;2023-01-29T05:34:27;2.15;;;1.50;;
58697;SDS011;44475;53.206;-6.106;2023-01-29T05:36:54;1.98;;;1.50;;
58697;SDS011;44475;53.206;-6.106;2023-01-29T05:39:20;2.30;;;1.60;;
58697;SDS011;44475;53.206;-6.106;2023-01-29T05:41:46;2.03;;;1.52;;
58697;SDS011;44475;53.206;-6.106;2023-01-29T05:44:13;3.58;;;1.60;;
58697;SDS011;44475;53.206;-6.106;2023-01-29T05:46:39;2.00;;;1.50;;
58697;SDS011;44475;53.206;-6.106;2023-01-29T05:49:05;3.17;;;1.52;;
58697;SDS011;44475;53.206;-6.106;2023-01-29T05:51:31;2.38;;;1.50;;
58697;SDS011;44475;53.206;-6.106;2023-01-29T05:53:58;2.08;;;1.50;;
58697;SDS011;44475;53.206;-6.106;2023-01-29T05:56:24;1.77;;;1.42;;
58697;SDS011;44475;53.206;-6.106;2023-01-29T05:58:50;2.72;;;1.60;;
58697;SDS011;44475;53.206;-6.106;2023-01-29T06:01:18;1.98;;;1.50;;
58697;SDS011;44475;53.206;-6.106;2023-01-29T06:03:46;2.33;;;1.50;;
58697;SDS011;44475;53.206;-6.106;2023-01-29T06:06:13;1.60;;;1.40;;
58697;SDS011;44475;53.206;-6.106;2023-01-29T06:08:39;2.05;;;1.40;;
58697;SDS011;44475;53.206;-6.106;2023-01-29T06:11:06;1.58;;;1.35;;
58697;SDS011;44475;53.206;-6.106;2023-01-29T06:13:34;1.73;;;1.30;;
58697;SDS011;44475;53.206;-6.106;2023-01-29T06:16:03;2.85;;;1.38;;
58697;SDS011;44475;53.206;-6.106;2023-01-29T06:18:30;1.48;;;1.30;;
58697;SDS011;44475;53.206;-6.106;2023-01-29T06:21:00;1.80;;;1.40;;
58697;SDS011;44475;53.206;-6.106;2023-01-29T06:23:28;1.77;;;1.40;;
58697;SDS011;44475;53.206;-6.106;2023-01-29T06:28:32;1.35;;;1.20;;
58697;SDS011;44475;53.206;-6.106;2023-01-29T06:31:00;1.40;;;1.30;;
58697;SDS011;44475;53.206;-6.106;2023-01-29T06:33:27;1.50;;;1.40;;
58697;SDS011;44475;53.206;-6.106;2023-01-29T06:35:57;1.80;;;1.40;;
58697;SDS011;44475;53.206;-6.106;2023-01-29T06:38:26;1.45;;;1.30;;
58697;SDS011;44475;53.206;-6.106;2023-01-29T06:40:52;1.63;;;1.20;;
58697;SDS011;44475;53.206;-6.106;2023-01-29T06:43:19;1.63;;;1.30;;
58697;SDS011;44475;53.206;-6.106;2023-01-29T06:45:47;1.38;;;1.27;;
58697;SDS011;44475;53.206;-6.106;2023-01-29T06:48:14;1.75;;;1.23;;
58697;SDS011;44475;53.206;-6.106;2023-01-29T06:50:41;1.45;;;1.13;;
58697;SDS011;44475;53.206;-6.106;2023-01-29T06:53:07;1.38;;;1.27;;
58697;SDS011;44475;53.206;-6.106;2023-01-29T06:55:34;1.48;;;1.23;;
58697;SDS011;44475;53.206;-6.106;2023-01-29T06:58:03;1.75;;;1.30;;
58697;SDS011;44475;53.206;-6.106;2023-01-29T07:00:34;1.45;;;1.30;;
58697;SDS011;44475;53.206;-6.106;2023-01-29T07:03:01;1.73;;;1.30;;
58697;SDS011;44475;53.206;-6.106;2023-01-29T07:05:28;1.48;;;1.30;;
58697;SDS011;44475;53.206;-6.106;2023-01-29T07:07:55;1.30;;;1.20;;
58697;SDS011;44475;53.206;-6.106;2023-01-29T07:10:22;1.20;;;1.10;;
58697;SDS011;44475;53.206;-6.106;2023-01-29T07:12:48;1.10;;;1.00;;
58697;SDS011;44475;53.206;-6.106;2023-01-29T07:15:15;1.30;;;1.20;;
58697;SDS011;44475;53.206;-6.106;2023-01-29T07:18:05;1.38;;;1.27;;
58697;SDS011;44475;53.206;-6.106;2023-01-29T07:20:36;3.20;;;1.10;;
58697;SDS011;44475;53.206;-6.106;2023-01-29T07:23:04;1.20;;;1.10;;
58697;SDS011;44475;53.206;-6.106;2023-01-29T07:25:32;1.23;;;1.13;;
58697;SDS011;44475;53.206;-6.106;2023-01-29T07:28:02;1.27;;;1.17;;
58697;SDS011;44475;53.206;-6.106;2023-01-29T07:30:28;1.05;;;1.02;;
58697;SDS011;44475;53.206;-6.106;2023-01-29T07:32:55;1.20;;;1.10;;
58697;SDS011;44475;53.206;-6.106;2023-01-29T07:35:36;4.00;;;1.58;;
58697;SDS011;44475;53.206;-6.106;2023-01-29T07:38:04;1.20;;;1.10;;
58697;SDS011;44475;53.206;-6.106;2023-01-29T07:40:31;1.13;;;1.02;;
58697;SDS011;44475;53.206;-6.106;2023-01-29T07:42:58;1.20;;;1.10;;
58697;SDS011;44475;53.206;-6.106;2023-01-29T07:45:26;1.20;;;1.10;;
58697;SDS011;44475;53.206;-6.106;2023-01-29T07:47:53;1.10;;;1.02;;
58697;SDS011;44475;53.206;-6.106;2023-01-29T07:50:21;0.95;;;0.95;;
58697;SDS011;44475;53.206;-6.106;2023-01-29T07:52:48;0.93;;;0.93;;
58697;SDS011;44475;53.206;-6.106;2023-01-29T07:55:15;1.00;;;1.00;;
58697;SDS011;44475;53.206;-6.106;2023-01-29T07:57:42;2.30;;;1.20;;
58697;SDS011;44475;53.206;-6.106;2023-01-29T08:00:09;0.90;;;0.90;;
58697;SDS011;44475;53.206;-6.106;2023-01-29T08:02:39;1.17;;;1.08;;
58697;SDS011;44475;53.206;-6.106;2023-01-29T08:05:06;1.10;;;1.00;;
58697;SDS011;44475;53.206;-6.106;2023-01-29T08:07:33;1.00;;;1.00;;
58697;SDS011;44475;53.206;-6.106;2023-01-29T08:09:59;1.10;;;1.00;;
58697;SDS011;44475;53.206;-6.106;2023-01-29T08:12:25;2.13;;;1.10;;
58697;SDS011;44475;53.206;-6.106;2023-01-29T08:14:51;1.02;;;0.93;;
58697;SDS011;44475;53.206;-6.106;2023-01-29T08:17:18;0.80;;;0.80;;
58697;SDS011;44475;53.206;-6.106;2023-01-29T08:19:44;0.90;;;0.90;;
58697;SDS011;44475;53.206;-6.106;2023-01-29T08:22:10;1.27;;;1.20;;
58697;SDS011;44475;53.206;-6.106;2023-01-29T08:24:36;0.93;;;0.93;;
58697;SDS011;44475;53.206;-6.106;2023-01-29T08:27:03;0.90;;;0.90;;
58697;SDS011;44475;53.206;-6.106;2023-01-29T08:29:29;0.85;;;0.85;;
58697;SDS011;44475;53.206;-6.106;2023-01-29T08:31:55;1.10;;;1.10;;
58697;SDS011;44475;53.206;-6.106;2023-01-29T08:34:22;1.13;;;1.02;;
58697;SDS011;44475;53.206;-6.106;2023-01-29T08:36:48;1.27;;;1.17;;
58697;SDS011;44475;53.206;-6.106;2023-01-29T08:39:14;0.90;;;0.90;;
58697;SDS011;44475;53.206;-6.106;2023-01-29T08:41:41;0.80;;;0.80;;
58697;SDS011;44475;53.206;-6.106;2023-01-29T08:44:07;0.85;;;0.85;;
58697;SDS011;44475;53.206;-6.106;2023-01-29T08:46:33;0.90;;;0.90;;
58697;SDS011;44475;53.206;-6.106;2023-01-29T08:48:59;1.08;;;0.98;;
58697;SDS011;44475;53.206;-6.106;2023-01-29T08:51:26;1.33;;;0.93;;
58697;SDS011;44475;53.206;-6.106;2023-01-29T08:53:52;1.27;;;1.10;;
58697;SDS011;44475;53.206;-6.106;2023-01-29T08:56:19;0.93;;;0.90;;
58697;SDS011;44475;53.206;-6.106;2023-01-29T08:58:45;1.10;;;1.00;;
58697;SDS011;44475;53.206;-6.106;2023-01-29T09:01:12;0.80;;;0.80;;
58697;SDS011;44475;53.206;-6.106;2023-01-29T09:03:39;0.80;;;0.80;;
58697;SDS011;44475;53.206;-6.106;2023-01-29T09:06:08;0.90;;;0.90;;
58697;SDS011;44475;53.206;-6.106;2023-01-29T09:08:35;0.93;;;0.90;;
58697;SDS011;44475;53.206;-6.106;2023-01-29T09:11:02;1.10;;;1.00;;
58697;SDS011;44475;53.206;-6.106;2023-01-29T09:13:28;1.30;;;1.20;;
58697;SDS011;44475;53.206;-6.106;2023-01-29T09:15:57;0.80;;;0.80;;
58697;SDS011;44475;53.206;-6.106;2023-01-29T09:18:24;0.80;;;0.80;;
58697;SDS011;44475;53.206;-6.106;2023-01-29T09:20:51;0.80;;;0.80;;
58697;SDS011;44475;53.206;-6.106;2023-01-29T09:23:18;0.93;;;0.93;;
58697;SDS011;44475;53.206;-6.106;2023-01-29T09:25:45;1.10;;;1.00;;
58697;SDS011;44475;53.206;-6.106;2023-01-29T09:28:11;1.35;;;1.10;;
58697;SDS011;44475;53.206;-6.106;2023-01-29T09:30:37;1.33;;;1.00;;
58697;SDS011;44475;53.206;-6.106;2023-01-29T09:33:04;1.20;;;0.93;;
58697;SDS011;44475;53.206;-6.106;2023-01-29T09:35:30;0.95;;;0.90;;
58697;SDS011;44475;53.206;-6.106;2023-01-29T09:37:57;0.90;;;0.90;;
58697;SDS011;44475;53.206;-6.106;2023-01-29T09:40:33;1.45;;;1.38;;
58697;SDS011;44475;53.206;-6.106;2023-01-29T09:43:05;1.55;;;0.95;;
58697;SDS011;44475;53.206;-6.106;2023-01-29T09:45:34;1.95;;;0.90;;
58697;SDS011;44475;53.206;-6.106;2023-01-29T09:48:03;0.93;;;0.93;;
58697;SDS011;44475;53.206;-6.106;2023-01-29T09:50:39;1.30;;;1.00;;
58697;SDS011;44475;53.206;-6.106;2023-01-29T09:53:20;0.90;;;0.90;;
58697;SDS011;44475;53.206;-6.106;2023-01-29T09:56:02;0.80;;;0.80;;
58697;SDS011;44475;53.206;-6.106;2023-01-29T09:58:44;2.28;;;0.93;;
58697;SDS011;44475;53.206;-6.106;2023-01-29T10:10:03;2.15;;;1.00;;
58697;SDS011;44475;53.206;-6.106;2023-01-29T10:25:44;1.00;;;1.00;;
58697;SDS011;44475;53.206;-6.106;2023-01-29T10:28:15;3.63;;;1.00;;
58697;SDS011;44475;53.206;-6.106;2023-01-29T10:30:48;1.08;;;1.00;;
58697;SDS011;44475;53.206;-6.106;2023-01-29T10:33:26;1.85;;;0.90;;
58697;SDS011;44475;53.206;-6.106;2023-01-29T10:36:18;0.80;;;0.80;;
58697;SDS011;44475;53.206;-6.106;2023-01-29T10:39:01;1.02;;;0.90;;
58697;SDS011;44475;53.206;-6.106;2023-01-29T10:47:22;7.63;;;1.30;;
58697;SDS011;44475;53.206;-6.106;2023-01-29T10:52:55;6.43;;;1.80;;
58697;SDS011;44475;53.206;-6.106;2023-01-29T11:00:48;6.53;;;1.80;;
58697;SDS011;44475;53.206;-6.106;2023-01-29T11:03:17;6.82;;;1.65;;
58697;SDS011;44475;53.206;-6.106;2023-01-29T11:08:28;4.63;;;1.20;;
58697;SDS011;44475;53.206;-6.106;2023-01-29T11:11:31;7.43;;;1.10;;
58697;SDS011;44475;53.206;-6.106;2023-01-29T11:14:11;3.45;;;1.23;;
58697;SDS011;44475;53.206;-6.106;2023-01-29T11:16:46;7.35;;;1.30;;
58697;SDS011;44475;53.206;-6.106;2023-01-29T11:19:13;6.95;;;1.35;;
58697;SDS011;44475;53.206;-6.106;2023-01-29T11:21:51;7.05;;;1.50;;
58697;SDS011;44475;53.206;-6.106;2023-01-29T11:24:21;9.55;;;1.30;;
58697;SDS011;44475;53.206;-6.106;2023-01-29T11:26:48;5.68;;;1.30;;
58697;SDS011;44475;53.206;-6.106;2023-01-29T11:32:12;6.30;;;1.40;;
58697;SDS011;44475;53.206;-6.106;2023-01-29T11:37:44;10.50;;;1.40;;
58697;SDS011;44475;53.206;-6.106;2023-01-29T11:42:44;5.40;;;1.10;;
58697;SDS011;44475;53.206;-6.106;2023-01-29T11:45:26;6.95;;;1.65;;
58697;SDS011;44475;53.206;-6.106;2023-01-29T11:47:56;2.33;;;0.93;;
58697;SDS011;44475;53.206;-6.106;2023-01-29T11:50:25;2.78;;;1.02;;
58697;SDS011;44475;53.206;-6.106;2023-01-29T11:52:53;4.97;;;1.30;;
58697;SDS011;44475;53.206;-6.106;2023-01-29T11:55:24;4.68;;;1.20;;
58697;SDS011;44475;53.206;-6.106;2023-01-29T11:58:02;4.78;;;1.02;;
58697;SDS011;44475;53.206;-6.106;2023-01-29T12:00:45;5.20;;;1.00;;
58697;SDS011;44475;53.206;-6.106;2023-01-29T12:03:16;4.13;;;1.23;;
58697;SDS011;44475;53.206;-6.106;2023-01-29T12:05:55;6.00;;;1.52;;
58697;SDS011;44475;53.206;-6.106;2023-01-29T12:08:25;6.93;;;1.10;;
58697;SDS011;44475;53.206;-6.106;2023-01-29T12:13:57;6.95;;;1.40;;
58697;SDS011;44475;53.206;-6.106;2023-01-29T12:27:06;5.90;;;2.30;;
58697;SDS011;44475;53.206;-6.106;2023-01-29T12:33:01;13.90;;;1.75;;
58697;SDS011;44475;53.206;-6.106;2023-01-29T12:35:29;15.85;;;1.88;;
58697;SDS011;44475;53.206;-6.106;2023-01-29T12:43:14;15.38;;;1.90;;
58697;SDS011;44475;53.206;-6.106;2023-01-29T12:45:42;10.75;;;1.70;;
58697;SDS011;44475;53.206;-6.106;2023-01-29T12:48:15;14.52;;;2.22;;
58697;SDS011;44475;53.206;-6.106;2023-01-29T12:50:52;10.38;;;1.88;;
58697;SDS011;44475;53.206;-6.106;2023-01-29T12:53:27;9.32;;;1.67;;
58697;SDS011;44475;53.206;-6.106;2023-01-29T12:56:12;10.00;;;1.60;;
58697;SDS011;44475;53.206;-6.106;2023-01-29T12:58:47;11.45;;;1.40;;
58697;SDS011;44475;53.206;-6.106;2023-01-29T13:01:30;13.30;;;1.60;;
58697;SDS011;44475;53.206;-6.106;2023-01-29T13:04:20;7.38;;;1.58;;
58697;SDS011;44475;53.206;-6.106;2023-01-29T13:07:14;3.67;;;1.52;;
58697;SDS011;44475;53.206;-6.106;2023-01-29T13:09:52;11.40;;;1.60;;
58697;SDS011;44475;53.206;-6.106;2023-01-29T13:12:24;12.20;;;1.85;;
58697;SDS011;44475;53.206;-6.106;2023-01-29T13:14:52;9.07;;;1.88;;
58697;SDS011;44475;53.206;-6.106;2023-01-29T13:20:15;6.95;;;1.80;;
58697;SDS011;44475;53.206;-6.106;2023-01-29T13:22:47;6.53;;;1.80;;
58697;SDS011;44475;53.206;-6.106;2023-01-29T13:25:17;4.50;;;1.80;;
58697;SDS011;44475;53.206;-6.106;2023-01-29T13:27:44;8.13;;;1.88;;
58697;SDS011;44475;53.206;-6.106;2023-01-29T13:33:02;5.97;;;1.90;;
58697;SDS011;44475;53.206;-6.106;2023-01-29T13:35:41;6.82;;;1.80;;
58697;SDS011;44475;53.206;-6.106;2023-01-29T13:38:43;13.52;;;2.22;;
58697;SDS011;44475;53.206;-6.106;2023-01-29T13:41:29;11.45;;;2.25;;
58697;SDS011;44475;53.206;-6.106;2023-01-29T13:44:07;13.73;;;2.20;;
58697;SDS011;44475;53.206;-6.106;2023-01-29T13:46:50;7.57;;;2.10;;
58697;SDS011;44475;53.206;-6.106;2023-01-29T13:49:33;7.75;;;1.98;;
58697;SDS011;44475;53.206;-6.106;2023-01-29T14:03:32;5.65;;;1.63;;
58697;SDS011;44475;53.206;-6.106;2023-01-29T14:08:40;5.10;;;1.70;;
58697;SDS011;44475;53.206;-6.106;2023-01-29T14:13:41;2.93;;;1.70;;
58697;SDS011;44475;53.206;-6.106;2023-01-29T14:21:46;3.58;;;1.70;;
58697;SDS011;44475;53.206;-6.106;2023-01-29T14:26:46;3.83;;;1.80;;
58697;SDS011;44475;53.206;-6.106;2023-01-29T14:36:56;9.85;;;2.05;;
58697;SDS011;44475;53.206;-6.106;2023-01-29T14:49:58;6.35;;;2.00;;
58697;SDS011;44475;53.206;-6.106;2023-01-29T14:52:36;8.95;;;2.00;;
58697;SDS011;44475;53.206;-6.106;2023-01-29T14:55:06;7.10;;;1.95;;
58697;SDS011;44475;53.206;-6.106;2023-01-29T14:57:39;4.95;;;1.80;;
58697;SDS011;44475;53.206;-6.106;2023-01-29T15:00:17;5.78;;;1.80;;
58697;SDS011;44475;53.206;-6.106;2023-01-29T15:02:54;6.88;;;2.00;;
58697;SDS011;44475;53.206;-6.106;2023-01-29T15:05:25;7.60;;;1.90;;
58697;SDS011;44475;53.206;-6.106;2023-01-29T15:19:46;6.32;;;1.90;;
58697;SDS011;44475;53.206;-6.106;2023-01-29T15:22:17;10.10;;;1.90;;
58697;SDS011;44475;53.206;-6.106;2023-01-29T15:24:45;4.93;;;1.90;;
58697;SDS011;44475;53.206;-6.106;2023-01-29T15:27:25;4.90;;;1.88;;
58697;SDS011;44475;53.206;-6.106;2023-01-29T15:29:57;7.30;;;2.35;;
58697;SDS011;44475;53.206;-6.106;2023-01-29T15:32:27;4.63;;;1.80;;
58697;SDS011;44475;53.206;-6.106;2023-01-29T15:40:55;4.50;;;1.90;;
58697;SDS011;44475;53.206;-6.106;2023-01-29T15:43:27;6.93;;;1.73;;
58697;SDS011;44475;53.206;-6.106;2023-01-29T15:47:01;5.38;;;1.80;;
58697;SDS011;44475;53.206;-6.106;2023-01-29T15:49:00;5.90;;;1.90;;
58697;SDS011;44475;53.206;-6.106;2023-01-29T15:51:32;6.72;;;1.88;;
58697;SDS011;44475;53.206;-6.106;2023-01-29T15:53:59;6.47;;;1.92;;
58697;SDS011;44475;53.206;-6.106;2023-01-29T15:56:29;6.57;;;1.98;;
58697;SDS011;44475;53.206;-6.106;2023-01-29T15:59:05;9.45;;;2.00;;
58697;SDS011;44475;53.206;-6.106;2023-01-29T16:01:39;6.70;;;2.25;;
58697;SDS011;44475;53.206;-6.106;2023-01-29T16:04:08;13.02;;;2.50;;
58697;SDS011;44475;53.206;-6.106;2023-01-29T16:06:41;10.23;;;2.10;;
58697;SDS011;44475;53.206;-6.106;2023-01-29T16:09:10;11.85;;;2.42;;
58697;SDS011;44475;53.206;-6.106;2023-01-29T16:11:43;12.52;;;2.30;;
58697;SDS011;44475;53.206;-6.106;2023-01-29T16:14:14;6.82;;;2.05;;
58697;SDS011;44475;53.206;-6.106;2023-01-29T16:16:44;14.50;;;2.28;;
58697;SDS011;44475;53.206;-6.106;2023-01-29T16:19:26;9.48;;;2.30;;
58697;SDS011;44475;53.206;-6.106;2023-01-29T16:21:55;8.52;;;2.30;;
58697;SDS011;44475;53.206;-6.106;2023-01-29T16:24:25;11.85;;;2.40;;
58697;SDS011;44475;53.206;-6.106;2023-01-29T16:26:57;6.70;;;1.98;;
58697;SDS011;44475;53.206;-6.106;2023-01-29T16:29:30;8.10;;;2.20;;
58697;SDS011;44475;53.206;-6.106;2023-01-29T16:31:58;9.50;;;2.20;;
58697;SDS011;44475;53.206;-6.106;2023-01-29T16:37:00;13.25;;;1.90;;
58697;SDS011;44475;53.206;-6.106;2023-01-29T16:39:37;7.38;;;1.85;;
58697;SDS011;44475;53.206;-6.106;2023-01-29T16:52:53;7.05;;;1.83;;
58697;SDS011;44475;53.206;-6.106;2023-01-29T16:55:22;10.23;;;2.15;;
58697;SDS011;44475;53.206;-6.106;2023-01-29T16:57:53;8.00;;;2.03;;
58697;SDS011;44475;53.206;-6.106;2023-01-29T17:00:24;8.55;;;2.17;;
58697;SDS011;44475;53.206;-6.106;2023-01-29T17:02:58;10.07;;;2.55;;
58697;SDS011;44475;53.206;-6.106;2023-01-29T17:05:29;9.05;;;1.92;;
58697;SDS011;44475;53.206;-6.106;2023-01-29T17:07:58;12.23;;;2.03;;
58697;SDS011;44475;53.206;-6.106;2023-01-29T17:10:26;7.57;;;2.03;;
58697;SDS011;44475;53.206;-6.106;2023-01-29T17:15:28;12.65;;;2.20;;
58697;SDS011;44475;53.206;-6.106;2023-01-29T17:17:58;7.72;;;2.40;;
58697;SDS011;44475;53.206;-6.106;2023-01-29T17:20:24;7.28;;;1.83;;
58697;SDS011;44475;53.206;-6.106;2023-01-29T17:22:50;6.28;;;2.00;;
58697;SDS011;44475;53.206;-6.106;2023-01-29T17:25:17;5.60;;;1.80;;
58697;SDS011;44475;53.206;-6.106;2023-01-29T17:27:45;4.15;;;1.80;;
58697;SDS011;44475;53.206;-6.106;2023-01-29T17:30:20;6.80;;;2.30;;
58697;SDS011;44475;53.206;-6.106;2023-01-29T17:32:47;6.47;;;2.40;;
58697;SDS011;44475;53.206;-6.106;2023-01-29T17:35:14;5.93;;;1.98;;
58697;SDS011;44475;53.206;-6.106;2023-01-29T17:37:41;7.63;;;2.00;;
58697;SDS011;44475;53.206;-6.106;2023-01-29T17:40:23;6.60;;;1.90;;
58697;SDS011;44475;53.206;-6.106;2023-01-29T17:43:06;4.32;;;1.92;;
58697;SDS011;44475;53.206;-6.106;2023-01-29T17:45:35;5.20;;;2.08;;
58697;SDS011;44475;53.206;-6.106;2023-01-29T17:48:03;4.80;;;1.77;;
58697;SDS011;44475;53.206;-6.106;2023-01-29T17:50:35;7.53;;;1.95;;
58697;SDS011;44475;53.206;-6.106;2023-01-29T17:53:06;5.15;;;1.77;;
58697;SDS011;44475;53.206;-6.106;2023-01-29T17:55:33;4.78;;;1.63;;
58697;SDS011;44475;53.206;-6.106;2023-01-29T17:58:00;3.03;;;1.80;;
58697;SDS011;44475;53.206;-6.106;2023-01-29T18:00:26;7.15;;;1.77;;
58697;SDS011;44475;53.206;-6.106;2023-01-29T18:02:54;4.68;;;1.70;;
58697;SDS011;44475;53.206;-6.106;2023-01-29T18:05:22;4.65;;;1.80;;
58697;SDS011;44475;53.206;-6.106;2023-01-29T18:07:48;3.47;;;1.70;;
58697;SDS011;44475;53.206;-6.106;2023-01-29T18:10:17;3.83;;;1.80;;
58697;SDS011;44475;53.206;-6.106;2023-01-29T18:15:36;5.70;;;1.90;;
58697;SDS011;44475;53.206;-6.106;2023-01-29T18:18:03;6.43;;;1.70;;
58697;SDS011;44475;53.206;-6.106;2023-01-29T18:20:30;5.28;;;1.63;;
58697;SDS011;44475;53.206;-6.106;2023-01-29T18:23:01;5.72;;;1.98;;
58697;SDS011;44475;53.206;-6.106;2023-01-29T18:25:29;4.22;;;1.80;;
58697;SDS011;44475;53.206;-6.106;2023-01-29T18:27:55;5.00;;;1.77;;
58697;SDS011;44475;53.206;-6.106;2023-01-29T18:30:22;4.90;;;1.75;;
58697;SDS011;44475;53.206;-6.106;2023-01-29T18:32:48;5.25;;;1.73;;
58697;SDS011;44475;53.206;-6.106;2023-01-29T18:35:15;5.22;;;2.05;;
58697;SDS011;44475;53.206;-6.106;2023-01-29T18:37:41;4.43;;;1.90;;
58697;SDS011;44475;53.206;-6.106;2023-01-29T18:40:08;5.40;;;1.90;;
58697;SDS011;44475;53.206;-6.106;2023-01-29T18:42:38;6.80;;;1.92;;